Time;durP1;ratioP1;P1;durP2;ratioP2;P2;SDS_P1;SDS_P2;PMS_P1;PMS_P2;Temp;Humidity;BMP_temperature;BMP_pressure;BME280_temperature;BME280_humidity;BME280_pressure;Samples;Min_cycle;Max_cycle;Signal;HPM_P1;HPM_P2
2022/10/19 00:01:56;;;;;;;18.15;6.90;;;;;;;7.46;100.00;102808.22;5013936;28;20129;-82
2022/10/19 00:04:21;;;;;;;20.08;7.60;;;;;;;7.56;100.00;102808.78;5006046;28;20033;-82
2022/10/19 00:06:46;;;;;;;23.45;9.13;;;;;;;7.70;100.00;102803.16;5003329;28;20027;-82
2022/10/19 00:09:15;;;;;;;25.20;10.25;;;;;;;7.78;100.00;102809.88;4990122;28;20034;-82
2022/10/19 00:11:43;;;;;;;22.60;9.63;;;;;;;7.75;100.00;102801.25;4972071;28;20037;-82
2022/10/19 00:14:18;;;;;;;18.60;9.45;;;;;;;7.77;100.00;102802.06;4990139;28;20073;-82
2022/10/19 00:16:45;;;;;;;24.88;10.25;;;;;;;7.78;100.00;102801.16;5009148;28;20137;-82
2022/10/19 00:19:14;;;;;;;22.38;10.30;;;;;;;7.79;100.00;102789.78;5016817;28;20026;-82
2022/10/19 00:21:40;;;;;;;25.17;10.23;;;;;;;7.81;100.00;102794.06;5029735;28;20033;-82
2022/10/19 00:24:07;;;;;;;24.55;10.90;;;;;;;7.85;100.00;102797.44;5029294;28;20033;-81
2022/10/19 00:26:32;;;;;;;23.08;11.10;;;;;;;7.89;100.00;102785.09;5028755;28;20017;-82
2022/10/19 00:28:58;;;;;;;27.73;11.10;;;;;;;7.88;100.00;102789.47;5024317;28;20502;-82
2022/10/19 00:31:23;;;;;;;24.52;11.43;;;;;;;7.90;100.00;102789.44;5021819;28;20073;-82
2022/10/19 00:33:49;;;;;;;27.80;11.52;;;;;;;7.90;100.00;102785.03;5010358;28;20025;-81
2022/10/19 00:36:20;;;;;;;24.45;10.98;;;;;;;7.88;100.00;102779.00;5028694;28;20037;-81
2022/10/19 00:38:46;;;;;;;26.60;11.50;;;;;;;7.89;100.00;102775.47;5029548;28;20042;-81
2022/10/19 00:41:13;;;;;;;20.55;10.43;;;;;;;7.89;100.00;102783.31;5006521;28;20126;-81
2022/10/19 00:44:14;;;;;;;24.20;11.00;;;;;;;7.91;100.00;102778.91;5011810;28;20351;-84
2022/10/19 00:46:42;;;;;;;22.83;10.27;;;;;;;7.91;100.00;102784.13;5028971;28;20390;-84
2022/10/19 00:49:11;;;;;;;27.42;12.00;;;;;;;7.89;100.00;102791.19;5028826;28;20036;-84
2022/10/19 00:51:39;;;;;;;22.60;12.52;;;;;;;7.93;100.00;102792.81;5029506;28;20454;-84
2022/10/19 00:54:06;;;;;;;26.05;11.55;;;;;;;7.90;100.00;102792.91;5027030;28;20044;-82
2022/10/19 00:56:32;;;;;;;20.88;12.50;;;;;;;7.90;100.00;102792.91;5029097;28;20025;-82
2022/10/19 00:58:58;;;;;;;26.35;12.70;;;;;;;7.90;100.00;102792.91;5009913;28;20033;-82
2022/10/19 01:01:26;;;;;;;22.88;12.02;;;;;;;7.89;100.00;102790.34;5024531;28;20595;-82
2022/10/19 01:03:51;;;;;;;24.90;11.65;;;;;;;7.86;100.00;102792.16;5028460;28;20025;-80
2022/10/19 01:06:18;;;;;;;18.05;11.35;;;;;;;7.90;100.00;102787.66;5024150;28;20084;-80
2022/10/19 01:08:44;;;;;;;23.02;12.10;;;;;;;7.86;100.00;102796.53;5007891;28;20498;-80
2022/10/19 01:11:37;;;;;;;29.05;12.43;;;;;;;7.84;100.00;102787.84;5001153;28;20025;-80
2022/10/19 01:14:16;;;;;;;23.55;11.15;;;;;;;7.80;100.00;102787.09;5027726;28;20033;-80
2022/10/19 01:16:59;;;;;;;20.10;11.80;;;;;;;7.83;100.00;102783.53;5006720;28;20184;-80
2022/10/19 01:19:33;;;;;;;20.88;11.00;;;;;;;7.79;100.00;102789.78;5008867;28;20164;-80
2022/10/19 01:22:18;;;;;;;25.13;11.05;;;;;;;7.79;100.00;102787.16;5008876;28;20034;-81
2022/10/19 01:25:01;;;;;;;26.80;11.77;;;;;;;7.77;100.00;102781.97;5009467;28;20025;-82
2022/10/19 01:27:43;;;;;;;22.70;11.73;;;;;;;7.76;100.00;102784.63;5009139;28;20033;-80
2022/10/19 01:30:41;;;;;;;26.50;11.82;;;;;;;7.74;100.00;102783.81;5002541;28;20482;-80
2022/10/19 01:33:34;;;;;;;22.48;11.35;;;;;;;7.69;100.00;102783.09;4990203;28;20059;-80
2022/10/19 01:36:21;;;;;;;22.02;11.20;;;;;;;7.71;100.00;102781.28;4991188;28;20033;-80
2022/10/19 01:38:59;;;;;;;23.38;12.05;;;;;;;7.68;100.00;102776.16;5012794;28;20034;-80
2022/10/19 01:41:35;;;;;;;18.85;10.95;;;;;;;7.64;100.00;102783.25;5008875;28;20026;-81
2022/10/19 01:44:24;;;;;;;23.45;11.57;;;;;;;7.67;100.00;102779.69;5012313;28;20115;-80
2022/10/19 01:46:56;;;;;;;21.83;11.43;;;;;;;7.63;100.00;102784.16;4994976;28;20034;-81
2022/10/19 01:49:58;;;;;;;24.23;11.63;;;;;;;7.63;100.00;102788.53;5012718;28;20502;-80
2022/10/19 01:52:26;;;;;;;20.08;11.68;;;;;;;7.57;100.00;102780.84;5004585;28;20161;-81
2022/10/19 01:54:58;;;;;;;17.80;11.50;;;;;;;7.58;100.00;102774.69;4995123;28;20438;-82
2022/10/19 01:57:30;;;;;;;29.90;11.63;;;;;;;7.53;100.00;102778.31;4980748;28;20115;-82
2022/10/19 01:59:57;;;;;;;22.55;11.55;;;;;;;7.54;100.00;102772.16;5008693;28;20038;-83
2022/10/19 02:02:24;;;;;;;20.70;11.20;;;;;;;7.53;100.00;102773.06;5002010;28;20065;-82
2022/10/19 02:04:52;;;;;;;20.02;11.93;;;;;;;7.51;100.00;102764.41;4984153;28;20144;-83
2022/10/19 02:07:20;;;;;;;21.48;11.93;;;;;;;7.51;100.00;102759.16;5011884;28;20030;-83
2022/10/19 02:09:45;;;;;;;21.25;11.80;;;;;;;7.47;100.00;102746.22;4995529;28;20053;-83
2022/10/19 02:12:12;;;;;;;21.52;11.80;;;;;;;7.46;100.00;102747.97;5011481;28;20034;-82
2022/10/19 02:14:49;;;;;;;18.75;11.27;;;;;;;7.44;100.00;102747.16;5014192;28;20413;-83
2022/10/19 02:17:20;;;;;;;24.02;11.93;;;;;;;7.42;100.00;102746.34;5024260;28;20022;-82
2022/10/19 02:19:45;;;;;;;19.02;11.68;;;;;;;7.44;100.00;102743.69;5011941;28;20121;-83
2022/10/19 02:22:12;;;;;;;18.98;11.77;;;;;;;7.42;100.00;102738.50;5012844;28;20124;-83
2022/10/19 02:24:37;;;;;;;17.85;11.52;;;;;;;7.40;100.00;102737.69;5031996;28;20076;-83
2022/10/19 02:27:05;;;;;;;23.17;12.02;;;;;;;7.41;100.00;102741.16;5013260;28;20025;-83
2022/10/19 02:29:32;;;;;;;18.65;12.07;;;;;;;7.40;100.00;102735.06;5013672;28;20025;-80
2022/10/19 02:31:58;;;;;;;24.60;12.25;;;;;;;7.40;100.00;102734.22;5030724;28;20100;-83
2022/10/19 02:34:23;;;;;;;18.90;11.50;;;;;;;7.38;100.00;102730.78;5031436;28;20044;-83
2022/10/19 02:36:49;;;;;;;18.05;10.90;;;;;;;7.33;100.00;102728.31;5031465;28;20114;-83
2022/10/19 02:39:14;;;;;;;26.63;11.52;;;;;;;7.34;100.00;102721.31;5013102;28;20030;-83
2022/10/19 02:42:03;;;;;;;22.73;11.73;;;;;;;7.32;100.00;102726.59;5008790;28;20108;-83
2022/10/19 02:44:36;;;;;;;19.15;10.80;;;;;;;7.26;100.00;102718.06;5013136;28;20025;-83
2022/10/19 02:47:17;;;;;;;18.70;11.35;;;;;;;7.23;100.00;102716.41;5030195;28;20025;-83
2022/10/19 02:49:44;;;;;;;24.33;11.55;;;;;;;7.19;100.00;102712.13;5012415;28;20446;-82
2022/10/19 02:52:12;;;;;;;22.05;11.20;;;;;;;7.19;100.00;102710.38;5030554;28;20021;-83
2022/10/19 02:54:41;;;;;;;20.58;11.20;;;;;;;7.15;100.00;102719.22;5029034;28;20033;-83
2022/10/19 02:57:23;;;;;;;20.02;11.10;;;;;;;7.16;100.00;102720.94;5022036;28;20026;-83
2022/10/19 02:59:49;;;;;;;16.25;11.27;;;;;;;7.15;100.00;102716.63;5011568;28;20375;-83
2022/10/19 03:02:15;;;;;;;24.10;11.15;;;;;;;7.14;100.00;102711.44;4997086;28;20025;-81
2022/10/19 03:04:43;;;;;;;24.75;11.27;;;;;;;7.09;100.00;102714.19;5025126;28;20026;-81
2022/10/19 03:07:09;;;;;;;18.90;11.35;;;;;;;7.11;100.00;102715.00;5025725;28;20049;-81
2022/10/19 03:09:34;;;;;;;19.73;11.30;;;;;;;7.05;100.00;102715.19;5013458;28;20143;-81
2022/10/19 03:12:03;;;;;;;20.92;11.07;;;;;;;7.03;100.00;102713.50;5013194;28;20124;-81
2022/10/19 03:14:31;;;;;;;20.58;11.25;;;;;;;7.05;100.00;102716.94;5030309;28;20036;-82
2022/10/19 03:16:56;;;;;;;19.02;10.82;;;;;;;7.08;100.00;102722.94;5030683;28;20040;-82
2022/10/19 03:19:21;;;;;;;15.38;9.68;;;;;;;7.08;100.00;102729.94;5013161;28;20022;-82
2022/10/19 03:21:47;;;;;;;18.88;9.88;;;;;;;7.04;100.00;102725.69;5012814;28;20029;-82
2022/10/19 03:24:12;;;;;;;18.00;10.27;;;;;;;7.07;100.00;102723.84;5010824;28;20599;-82
2022/10/19 03:26:38;;;;;;;19.98;10.23;;;;;;;7.04;100.00;102725.69;5030864;28;20040;-81
2022/10/19 03:29:03;;;;;;;19.33;10.07;;;;;;;7.01;100.00;102715.31;5022103;28;20037;-81
2022/10/19 03:31:28;;;;;;;20.70;10.45;;;;;;;6.95;100.00;102711.13;5004716;28;20025;-81
2022/10/19 03:33:54;;;;;;;16.50;10.20;;;;;;;6.95;100.00;102716.34;5030329;28;20026;-81
2022/10/19 03:36:22;;;;;;;17.75;10.00;;;;;;;6.95;100.00;102715.50;5026343;28;20034;-82
2022/10/19 03:38:52;;;;;;;16.95;9.80;;;;;;;6.91;100.00;102712.13;5000901;28;20025;-82
2022/10/19 03:41:22;;;;;;;16.73;10.05;;;;;;;6.91;100.00;102709.50;5009015;28;20052;-81
2022/10/19 03:43:48;;;;;;;17.20;9.57;;;;;;;6.88;100.00;102709.59;5011979;28;20079;-81
2022/10/19 03:46:13;;;;;;;18.75;10.07;;;;;;;6.85;100.00;102712.28;5029518;28;20033;-81
2022/10/19 03:48:38;;;;;;;17.52;9.90;;;;;;;6.75;100.00;102706.44;5012325;28;20041;-81
2022/10/19 03:51:07;;;;;;;17.73;9.93;;;;;;;6.74;100.00;102712.56;5025005;28;20445;-81
2022/10/19 03:53:33;;;;;;;19.13;9.23;;;;;;;6.73;100.00;102710.84;5030059;28;20051;-81
2022/10/19 03:56:13;;;;;;;14.50;8.27;;;;;;;6.71;100.00;102722.25;5022012;28;20025;-81
2022/10/19 03:58:40;;;;;;;16.20;8.25;;;;;;;6.63;100.00;102725.09;5000721;28;20463;-83
2022/10/19 04:01:09;;;;;;;12.35;7.63;;;;;;;6.62;100.00;102722.53;5025956;28;20021;-83
2022/10/19 04:03:35;;;;;;;19.33;8.82;;;;;;;6.59;100.00;102719.09;4997207;28;20026;-83
2022/10/19 04:06:06;;;;;;;17.85;8.23;;;;;;;6.66;100.00;102729.38;5027953;28;20028;-83
2022/10/19 04:08:32;;;;;;;18.88;9.00;;;;;;;6.65;100.00;102725.06;4992285;28;20088;-83
2022/10/19 04:10:59;;;;;;;16.77;9.63;;;;;;;6.65;100.00;102718.06;5009088;28;20034;-83
2022/10/19 04:13:25;;;;;;;16.20;10.15;;;;;;;6.65;100.00;102728.53;5009860;28;20521;-83
2022/10/19 04:15:50;;;;;;;18.73;9.38;;;;;;;6.64;100.00;102720.72;5010651;28;20077;-83
2022/10/19 04:18:16;;;;;;;16.73;10.02;;;;;;;6.63;100.00;102708.56;4993016;28;20033;-83
2022/10/19 04:20:42;;;;;;;20.63;10.35;;;;;;;6.57;100.00;102713.06;5017706;28;20044;-80
2022/10/19 04:23:08;;;;;;;15.77;10.23;;;;;;;6.58;100.00;102711.28;4992313;28;20100;-80
2022/10/19 04:25:33;;;;;;;20.88;10.75;;;;;;;6.57;100.00;102717.41;5011140;28;20013;-80
2022/10/19 04:27:59;;;;;;;16.55;10.48;;;;;;;6.54;100.00;102718.38;5029288;28;20030;-80
2022/10/19 04:30:24;;;;;;;20.85;10.90;;;;;;;6.52;100.00;102711.47;5029723;28;20026;-80
2022/10/19 04:32:49;;;;;;;22.67;10.10;;;;;;;6.54;100.00;102712.28;5029405;28;20029;-82
2022/10/19 04:35:15;;;;;;;20.17;10.73;;;;;;;6.52;100.00;102703.63;5036809;28;20276;-81
2022/10/19 04:37:40;;;;;;;16.33;10.77;;;;;;;6.51;100.00;102694.06;5022375;28;20068;-81
2022/10/19 04:40:06;;;;;;;19.45;12.07;;;;;;;6.51;100.00;102704.53;5028134;28;20100;-81
2022/10/19 04:42:32;;;;;;;22.60;11.75;;;;;;;6.51;100.00;102699.28;5025967;28;20037;-81
2022/10/19 04:44:57;;;;;;;15.00;10.52;;;;;;;6.52;100.00;102701.00;5028770;28;20076;-81
2022/10/19 04:47:22;;;;;;;19.38;11.68;;;;;;;6.52;100.00;102706.22;5003125;28;20036;-82
2022/10/19 04:49:47;;;;;;;23.08;11.43;;;;;;;6.53;100.00;102707.94;5029534;28;20019;-81
2022/10/19 04:52:13;;;;;;;20.25;11.48;;;;;;;6.54;100.00;102705.28;5028165;28;20021;-81
2022/10/19 04:54:38;;;;;;;19.13;11.27;;;;;;;6.54;100.00;102709.66;5025308;28;20033;-81
2022/10/19 04:57:03;;;;;;;20.95;11.27;;;;;;;6.56;100.00;102710.47;5008336;28;20045;-83
2022/10/19 04:59:29;;;;;;;24.88;12.05;;;;;;;6.54;100.00;102720.13;5023175;28;20267;-81
2022/10/19 05:01:54;;;;;;;20.05;11.27;;;;;;;6.52;100.00;102706.22;5001658;28;20113;-81
2022/10/19 05:04:19;;;;;;;18.77;10.65;;;;;;;6.50;100.00;102710.66;5000910;28;20025;-81
2022/10/19 05:06:45;;;;;;;18.55;10.48;;;;;;;6.49;100.00;102712.41;5032420;28;20612;-81
2022/10/19 05:09:10;;;;;;;21.27;10.65;;;;;;;6.47;100.00;102710.72;5002755;28;20108;-82
2022/10/19 05:11:35;;;;;;;15.68;11.10;;;;;;;6.48;100.00;102715.91;5035175;28;20112;-81
2022/10/19 05:14:01;;;;;;;18.35;10.98;;;;;;;6.43;100.00;102711.72;5034621;28;20512;-81
2022/10/19 05:16:26;;;;;;;21.45;11.88;;;;;;;6.40;100.00;102703.94;5033669;28;20081;-81
2022/10/19 05:19:00;;;;;;;20.02;10.63;;;;;;;6.38;100.00;102708.34;5035337;28;20121;-81
2022/10/19 05:21:27;;;;;;;24.10;10.95;;;;;;;6.36;100.00;102702.28;5016233;28;20029;-81
2022/10/19 05:23:54;;;;;;;16.23;10.68;;;;;;;6.35;100.00;102705.81;5035822;28;20025;-81
2022/10/19 05:26:22;;;;;;;26.98;11.40;;;;;;;6.33;100.00;102699.75;5029195;28;20132;-81
2022/10/19 05:28:56;;;;;;;19.20;11.52;;;;;;;6.34;100.00;102691.03;5016243;28;20049;-81
2022/10/19 05:31:24;;;;;;;18.17;11.75;;;;;;;6.30;100.00;102687.63;5017511;28;20029;-81
2022/10/19 05:33:50;;;;;;;22.10;12.43;;;;;;;6.28;100.00;102682.44;5034535;28;20026;-81
2022/10/19 05:36:19;;;;;;;26.02;12.73;;;;;;;6.29;100.00;102683.31;5006394;28;20458;-81
2022/10/19 05:38:46;;;;;;;24.40;11.80;;;;;;;6.23;100.00;102686.94;5016748;28;20030;-81
2022/10/19 05:41:12;;;;;;;27.30;12.50;;;;;;;6.23;100.00;102684.34;5001169;28;20121;-81
2022/10/19 05:43:41;;;;;;;29.83;12.68;;;;;;;6.28;100.00;102686.81;5027030;28;20048;-81
2022/10/19 05:46:13;;;;;;;24.58;12.23;;;;;;;6.26;100.00;102686.84;5017390;28;20034;-81
2022/10/19 05:48:39;;;;;;;24.05;12.80;;;;;;;6.23;100.00;102679.09;5017283;28;20029;-81
2022/10/19 05:51:07;;;;;;;29.35;13.30;;;;;;;6.25;100.00;102690.38;5018752;28;20030;-81
2022/10/19 05:53:33;;;;;;;26.42;12.27;;;;;;;6.25;100.00;102682.53;5014800;28;20055;-81
2022/10/19 05:55:58;;;;;;;24.35;12.50;;;;;;;6.22;100.00;102677.38;5014127;28;20029;-81
2022/10/19 05:58:24;;;;;;;30.02;12.98;;;;;;;6.21;100.00;102678.28;5014852;28;20051;-81
2022/10/19 06:00:54;;;;;;;28.55;13.60;;;;;;;6.22;100.00;102681.75;4997615;28;20025;-81
2022/10/19 06:03:20;;;;;;;20.48;12.93;;;;;;;6.18;100.00;102678.38;4996683;28;20551;-81
2022/10/19 06:05:47;;;;;;;26.33;13.57;;;;;;;6.21;100.00;102674.81;5031898;28;20351;-81
2022/10/19 06:08:12;;;;;;;30.67;13.50;;;;;;;6.17;100.00;102668.81;5033877;28;20033;-81
2022/10/19 06:10:37;;;;;;;28.40;14.52;;;;;;;6.15;100.00;102667.13;5016650;28;20040;-81
2022/10/19 06:13:03;;;;;;;27.60;14.38;;;;;;;6.16;100.00;102669.72;5035108;28;20024;-81
2022/10/19 06:15:35;;;;;;;24.02;14.80;;;;;;;6.15;100.00;102669.75;5035151;28;20055;-81
2022/10/19 06:18:03;;;;;;;25.48;14.68;;;;;;;6.17;100.00;102668.81;5020756;28;20029;-81
2022/10/19 06:20:28;;;;;;;28.60;14.93;;;;;;;6.18;100.00;102665.31;4994661;28;20029;-81
2022/10/19 06:22:54;;;;;;;23.70;14.75;;;;;;;6.14;100.00;102666.28;5024644;28;20119;-81
2022/10/19 06:25:19;;;;;;;28.70;15.70;;;;;;;6.15;100.00;102668.00;5030339;28;20035;-81
2022/10/19 06:27:45;;;;;;;31.88;16.40;;;;;;;6.14;100.00;102666.28;5028106;28;20045;-81
2022/10/19 06:30:11;;;;;;;23.13;15.60;;;;;;;6.19;100.00;102668.78;5021074;28;20404;-81
2022/10/19 06:32:36;;;;;;;26.98;16.27;;;;;;;6.20;100.00;102668.72;5020948;28;20040;-82
2022/10/19 06:35:02;;;;;;;31.60;18.80;;;;;;;6.22;100.00;102682.63;5021454;28;20492;-82
2022/10/19 06:37:27;;;;;;;32.78;18.77;;;;;;;6.23;100.00;102673.88;5003461;28;20061;-82
2022/10/19 06:39:52;;;;;;;31.27;17.55;;;;;;;6.27;100.00;102672.91;5020367;28;20025;-82
2022/10/19 06:42:18;;;;;;;26.33;15.98;;;;;;;6.32;100.00;102678.00;5004494;28;20097;-83
2022/10/19 06:44:43;;;;;;;31.08;16.83;;;;;;;6.36;100.00;102673.53;5023071;28;20026;-82
2022/10/19 06:47:08;;;;;;;30.27;15.95;;;;;;;6.38;100.00;102671.75;5004481;28;20017;-82
2022/10/19 06:49:34;;;;;;;28.52;16.20;;;;;;;6.36;100.00;102678.78;5002923;28;20022;-83
2022/10/19 06:52:01;;;;;;;29.02;16.52;;;;;;;6.38;100.00;102684.81;5002049;28;20025;-82
2022/10/19 06:54:26;;;;;;;28.50;16.33;;;;;;;6.40;100.00;102667.31;5012349;28;20060;-82
2022/10/19 06:56:52;;;;;;;28.30;16.38;;;;;;;6.43;100.00;102673.34;5013630;28;20116;-82
2022/10/19 06:59:17;;;;;;;26.77;17.30;;;;;;;6.46;100.00;102673.28;5012647;28;20029;-81
2022/10/19 07:01:42;;;;;;;35.47;17.08;;;;;;;6.52;100.00;102677.47;5017487;28;20402;-82
2022/10/19 07:04:07;;;;;;;28.45;16.77;;;;;;;6.53;100.00;102674.81;5013453;28;20026;-82
2022/10/19 07:06:33;;;;;;;32.60;16.30;;;;;;;6.59;100.00;102671.16;5012557;28;20028;-82
2022/10/19 07:08:58;;;;;;;31.30;16.77;;;;;;;6.62;100.00;102668.47;5030991;28;20033;-82
2022/10/19 07:11:24;;;;;;;33.47;16.75;;;;;;;6.67;100.00;102669.19;5013060;28;20025;-82
2022/10/19 07:13:51;;;;;;;30.33;16.77;;;;;;;6.72;100.00;102677.75;5030303;28;20056;-80
2022/10/19 07:16:17;;;;;;;27.70;15.93;;;;;;;6.76;100.00;102679.38;5030287;28;20045;-80
2022/10/19 07:18:43;;;;;;;27.55;15.43;;;;;;;6.81;100.00;102674.91;5013098;28;20021;-80
2022/10/19 07:21:11;;;;;;;26.05;17.40;;;;;;;6.87;100.00;102682.56;5012217;28;20025;-80
2022/10/19 07:23:38;;;;;;;28.80;16.63;;;;;;;6.96;100.00;102676.19;5013014;28;20438;-80
2022/10/19 07:26:11;;;;;;;34.88;15.80;;;;;;;7.04;100.00;102674.22;5030080;28;20048;-80
2022/10/19 07:28:38;;;;;;;23.25;15.50;;;;;;;7.10;100.00;102683.63;5029702;28;20474;-80
2022/10/19 07:31:06;;;;;;;19.88;13.80;;;;;;;7.16;100.00;102675.59;5012734;28;20076;-79
2022/10/19 07:33:31;;;;;;;24.15;14.52;;;;;;;7.22;100.00;102668.44;5012614;28;20025;-82
2022/10/19 07:36:02;;;;;;;26.02;14.23;;;;;;;7.28;100.00;102677.84;5029641;28;20078;-81
2022/10/19 07:38:29;;;;;;;20.23;14.32;;;;;;;7.33;100.00;102669.84;5030546;28;20017;-81
2022/10/19 07:41:13;;;;;;;25.40;13.82;;;;;;;7.39;100.00;102672.28;5030957;28;20492;-81
2022/10/19 07:43:39;;;;;;;20.77;14.30;;;;;;;7.44;100.00;102670.38;5012510;28;20017;-81
2022/10/19 07:46:07;;;;;;;23.58;14.48;;;;;;;7.50;100.00;102672.78;5027175;28;20556;-82
2022/10/19 07:48:33;;;;;;;19.83;14.05;;;;;;;7.54;100.00;102670.03;5010140;28;20032;-81
2022/10/19 07:51:00;;;;;;;23.38;13.82;;;;;;;7.60;100.00;102662.88;5009326;28;20443;-82
2022/10/19 07:53:26;;;;;;;22.40;13.82;;;;;;;7.63;100.00;102661.03;5010838;28;20040;-81
2022/10/19 07:55:51;;;;;;;21.80;12.60;;;;;;;7.69;100.00;102662.59;5008900;28;20022;-82
2022/10/19 07:58:16;;;;;;;23.27;12.90;;;;;;;7.76;100.00;102664.09;5013129;28;20049;-82
2022/10/19 08:00:42;;;;;;;22.05;13.30;;;;;;;7.83;100.00;102657.75;5026968;28;20029;-82
2022/10/19 08:03:07;;;;;;;23.10;14.00;;;;;;;7.92;100.00;102656.56;5011685;28;20036;-82
2022/10/19 08:05:33;;;;;;;25.20;13.48;;;;;;;7.99;100.00;102650.22;5014918;28;20022;-82
2022/10/19 08:07:58;;;;;;;17.75;12.00;;;;;;;8.05;100.00;102645.63;5011927;28;20028;-82
2022/10/19 08:10:23;;;;;;;23.95;11.73;;;;;;;8.14;100.00;102658.41;5029266;28;20037;-83
2022/10/19 08:12:49;;;;;;;22.08;12.27;;;;;;;8.26;100.00;102653.66;5024740;28;20038;-82
2022/10/19 08:15:14;;;;;;;17.08;11.23;;;;;;;8.33;100.00;102652.50;5021922;28;20054;-82
2022/10/19 08:17:39;;;;;;;26.83;12.07;;;;;;;8.44;100.00;102645.19;5011869;28;20026;-82
2022/10/19 08:20:06;;;;;;;27.05;12.48;;;;;;;8.54;100.00;102638.66;5010965;28;20048;-84
2022/10/19 08:22:31;;;;;;;24.67;11.40;;;;;;;8.64;100.00;102644.44;5010368;28;20037;-81
2022/10/19 08:24:57;;;;;;;14.75;11.10;;;;;;;8.74;100.00;102636.16;5008658;28;20022;-81
2022/10/19 08:27:22;;;;;;;18.92;11.32;;;;;;;8.85;100.00;102622.66;5010425;28;20380;-81
2022/10/19 08:29:47;;;;;;;15.80;11.27;;;;;;;8.97;100.00;102621.31;5010190;28;20018;-81
2022/10/19 08:32:13;;;;;;;18.60;10.35;;;;;;;9.07;100.00;102618.25;5027344;28;20025;-83
2022/10/19 08:34:38;;;;;;;24.50;11.20;;;;;;;9.19;100.00;102621.31;5029872;28;20029;-83
2022/10/19 08:37:04;;;;;;;26.10;10.10;;;;;;;9.27;100.00;102620.09;5011836;28;20029;-81
2022/10/19 08:39:29;;;;;;;18.77;9.85;;;;;;;9.39;100.00;102616.97;5028223;28;20037;-82
2022/10/19 08:41:59;;;;;;;21.65;10.02;;;;;;;9.51;100.00;102612.13;5029927;28;20033;-81
2022/10/19 08:44:27;;;;;;;19.20;9.90;;;;;;;9.60;100.00;102607.34;5029762;28;20032;-82
2022/10/19 08:47:14;;;;;;;28.65;9.73;;;;;;;9.75;100.00;102608.50;5011408;28;20056;-80
2022/10/19 08:49:40;;;;;;;19.25;9.40;;;;;;;9.86;100.00;102606.25;5030027;28;20032;-82
2022/10/19 08:52:19;;;;;;;16.83;9.00;;;;;;;10.08;100.00;102610.59;5028686;28;20052;-81
2022/10/19 08:54:52;;;;;;;19.80;8.63;;;;;;;10.16;100.00;102605.84;5011704;28;20072;-83
2022/10/19 08:57:36;;;;;;;21.27;8.85;;;;;;;10.29;100.00;102604.41;5011549;28;20025;-82
2022/10/19 09:00:35;;;;;;;21.15;9.10;;;;;;;10.46;100.00;102599.28;5011146;28;20021;-82
2022/10/19 09:03:20;;;;;;;17.67;7.32;;;;;;;10.56;100.00;102607.59;5029232;28;20033;-83
2022/10/19 09:05:59;;;;;;;19.05;7.35;;;;;;;10.63;100.00;102607.25;4995376;28;20034;-81
2022/10/19 09:08:24;;;;;;;21.08;7.22;;;;;;;10.78;100.00;102596.91;5028052;28;20118;-82
2022/10/19 09:10:52;;;;;;;21.08;7.50;;;;;;;10.82;100.00;102593.25;5029231;28;20426;-81
2022/10/19 09:13:24;;;;;;;15.00;6.60;;;;;;;10.94;100.00;102596.13;5018876;28;20044;-81
2022/10/19 09:15:51;;;;;;;15.30;6.53;;;;;;;11.01;100.00;102595.84;5016465;28;20058;-82
2022/10/19 09:18:30;;;;;;;18.27;6.45;;;;;;;11.00;99.43;102605.53;5008551;28;20029;-81
2022/10/19 09:21:18;;;;;;;15.98;6.80;;;;;;;11.11;100.00;102610.28;5013912;28;20030;-81
2022/10/19 09:24:25;;;;;;;19.38;7.40;;;;;;;11.19;100.00;102614.25;5008593;28;20029;-82
2022/10/19 09:26:53;;;;;;;15.15;5.80;;;;;;;11.23;99.14;102613.19;4983581;28;20042;-82
2022/10/19 09:29:46;;;;;;;24.40;7.68;;;;;;;11.39;99.51;102615.91;5008522;28;20045;-82
2022/10/19 09:32:23;;;;;;;15.18;6.22;;;;;;;11.50;97.49;102616.25;4989126;28;20022;-82
2022/10/19 09:34:49;;;;;;;58.00;10.02;;;;;;;11.59;97.04;102604.38;5006422;28;20084;-82
2022/10/19 09:37:16;;;;;;;30.50;5.93;;;;;;;11.65;95.25;102601.47;4990724;28;20014;-81
2022/10/19 09:39:41;;;;;;;53.08;8.70;;;;;;;11.69;93.90;102595.09;5008807;28;20041;-85
2022/10/19 09:42:20;;;;;;;20.48;5.55;;;;;;;11.70;92.35;102601.22;5008101;28;20034;-83
2022/10/19 09:44:45;;;;;;;44.88;7.53;;;;;;;11.76;92.96;102595.63;5007161;28;20364;-82
2022/10/19 09:47:34;;;;;;;36.60;6.15;;;;;;;11.83;93.25;102592.63;4990718;28;20546;-81
2022/10/19 09:50:19;;;;;;;24.17;5.68;;;;;;;11.89;92.79;102584.41;5010319;28;20406;-81
2022/10/19 09:52:47;;;;;;;28.00;6.10;;;;;;;12.00;93.10;102568.00;5006615;28;20333;-83
2022/10/19 09:55:12;;;;;;;24.73;4.85;;;;;;;12.03;90.21;102565.25;5011848;28;20206;-83
2022/10/19 09:57:42;;;;;;;32.13;6.05;;;;;;;12.11;89.73;102568.31;5013187;28;20547;-83
2022/10/19 10:00:20;;;;;;;30.48;5.00;;;;;;;12.12;88.75;102567.38;5012666;28;20367;-83
2022/10/19 10:02:50;;;;;;;16.35;4.45;;;;;;;12.21;89.63;102560.75;5012821;28;20048;-81
2022/10/19 10:05:17;;;;;;;19.90;4.80;;;;;;;12.30;89.14;102554.13;4995042;28;20037;-84
2022/10/19 10:07:43;;;;;;;29.98;5.10;;;;;;;12.42;89.26;102558.78;5012727;28;20026;-84
2022/10/19 10:10:37;;;;;;;21.60;4.93;;;;;;;12.46;88.56;102566.44;4994376;28;20037;-85
2022/10/19 10:13:03;;;;;;;26.20;4.82;;;;;;;12.45;86.67;102575.28;4994604;28;20054;-85
2022/10/19 10:15:53;;;;;;;13.93;4.38;;;;;;;12.53;87.93;102567.81;4994816;28;20135;-85
2022/10/19 10:18:18;;;;;;;12.73;4.03;;;;;;;12.57;84.89;102567.63;4994402;28;20026;-84
2022/10/19 10:21:12;;;;;;;18.48;3.90;;;;;;;12.66;85.10;102575.03;4995257;28;20496;-86
2022/10/19 10:23:38;;;;;;;10.27;3.70;;;;;;;12.75;84.03;102574.53;5011866;28;20037;-85
2022/10/19 10:26:14;;;;;;;11.95;3.83;;;;;;;12.80;82.73;102570.69;4995369;28;20536;-86
2022/10/19 10:28:47;;;;;;;15.40;4.30;;;;;;;12.91;82.46;102566.63;5014224;28;20394;-86
2022/10/19 10:31:13;;;;;;;22.05;4.65;;;;;;;13.00;82.11;102561.66;4994349;28;20113;-85
2022/10/19 10:33:40;;;;;;;18.45;4.10;;;;;;;12.98;80.50;102550.31;5011400;28;20116;-86
2022/10/19 10:36:10;;;;;;;15.52;4.03;;;;;;;13.09;82.11;102550.56;4995393;28;20018;-86
2022/10/19 10:38:40;;;;;;;12.13;4.00;;;;;;;13.28;80.92;102549.53;4994589;28;20022;-86
2022/10/19 10:41:13;;;;;;;12.13;4.03;;;;;;;13.42;80.62;102537.22;5012250;28;20026;-86
2022/10/19 10:43:47;;;;;;;;;;;;;;;13.53;83.41;102528.63;5013787;28;20104;-87
2022/10/19 10:46:18;;;;;;;14.65;3.83;;;;;;;13.58;76.75;102521.28;5011386;28;19917;-83
2022/10/19 10:48:51;;;;;;;10.95;3.55;;;;;;;13.70;77.34;102531.16;5012394;28;20026;-83
2022/10/19 10:51:31;;;;;;;10.25;4.43;;;;;;;13.77;77.64;102534.28;4993101;28;20030;-82
2022/10/19 10:54:19;;;;;;;10.40;3.70;;;;;;;13.81;77.69;102527.84;5011759;28;20030;-83
2022/10/19 10:57:08;;;;;;;14.65;4.53;;;;;;;13.91;78.07;102525.47;4994458;28;20056;-82
2022/10/19 10:59:42;;;;;;;14.90;4.75;;;;;;;13.88;77.43;102518.59;5010947;28;20030;-82
2022/10/19 11:02:35;;;;;;;12.80;3.83;;;;;;;13.93;79.33;102510.34;5011378;28;20425;-82
2022/10/19 11:05:09;;;;;;;14.35;4.50;;;;;;;13.92;74.82;102513.94;5005242;28;20045;-83
2022/10/19 11:07:39;;;;;;;9.65;4.03;;;;;;;13.97;76.64;102506.56;5011123;28;20021;-80
2022/10/19 11:10:15;;;;;;;11.98;4.05;;;;;;;14.01;76.20;102508.13;5011101;28;20034;-81
2022/10/19 11:12:48;;;;;;;15.00;4.50;;;;;;;14.03;73.50;102504.44;5011107;28;20030;-80
2022/10/19 11:15:32;;;;;;;;;;;;;;;14.16;77.33;102493.06;5000389;28;20057;-80
2022/10/19 11:18:20;;;;;;;12.80;4.03;;;;;;;14.23;76.04;102503.16;5013582;28;19908;-80
2022/10/19 11:20:56;;;;;;;12.63;4.18;;;;;;;14.29;76.19;102491.34;5013047;28;20116;-80
2022/10/19 11:23:51;;;;;;;13.25;5.25;;;;;;;14.42;77.20;102486.97;5012991;28;20036;-80
2022/10/19 11:26:35;;;;;;;10.35;4.30;;;;;;;14.46;75.78;102477.06;5025234;28;20037;-80